Time;durP1;ratioP1;P1;durP2;ratioP2;P2;SDS_P1;SDS_P2;PMS_P1;PMS_P2;Temp;Humidity;BMP_temperature;BMP_pressure;BME280_temperature;BME280_humidity;BME280_pressure;Samples;Min_cycle;Max_cycle;Signal;HPM_P1;HPM_P2
2023/06/13 00:00:59;;;;;;;11.85;10.65;;;21.40;99.90;;;;;;4214399;28;20504;-67
2023/06/13 00:03:02;;;;;;;12.48;11.07;;;21.30;99.90;;;;;;4214787;28;20048;-58
2023/06/13 00:05:05;;;;;;;11.38;10.13;;;21.30;99.90;;;;;;4213309;28;20047;-63
2023/06/13 00:07:09;;;;;;;13.38;11.70;;;21.30;99.90;;;;;;4214616;28;20071;-68
2023/06/13 00:09:11;;;;;;;14.85;11.10;;;21.40;99.90;;;;;;4214359;28;20063;-59
2023/06/13 00:11:17;;;;;;;16.98;12.27;;;21.30;99.90;;;;;;4214113;28;20517;-57
2023/06/13 00:13:19;;;;;;;13.98;11.15;;;21.30;99.90;;;;;;4213467;28;20048;-59
2023/06/13 00:15:23;;;;;;;14.70;11.32;;;21.30;99.90;;;;;;4213130;28;20078;-58
2023/06/13 00:17:25;;;;;;;15.35;10.50;;;21.30;99.90;;;;;;4213650;28;20055;-58
2023/06/13 00:19:28;;;;;;;12.93;11.52;;;21.20;99.90;;;;;;4214172;28;20051;-58
2023/06/13 00:21:32;;;;;;;15.38;11.68;;;21.20;99.90;;;;;;4214010;28;20040;-58
2023/06/13 00:23:34;;;;;;;13.90;11.15;;;21.20;99.90;;;;;;4213335;28;20052;-57
2023/06/13 00:25:36;;;;;;;14.32;11.82;;;21.10;99.90;;;;;;4213733;28;20068;-57
2023/06/13 00:27:38;;;;;;;12.82;10.77;;;21.10;99.90;;;;;;4213384;28;20044;-57
2023/06/13 00:29:40;;;;;;;15.20;11.77;;;21.10;99.90;;;;;;4213567;28;20044;-58
2023/06/13 00:31:44;;;;;;;13.60;10.52;;;21.00;99.90;;;;;;4213897;28;20122;-57
2023/06/13 00:33:50;;;;;;;14.48;10.50;;;21.00;99.90;;;;;;4212986;28;20047;-59
2023/06/13 00:35:52;;;;;;;17.58;11.55;;;21.00;99.90;;;;;;4213789;28;20135;-58
2023/06/13 00:37:56;;;;;;;16.30;11.90;;;21.00;99.90;;;;;;4214047;28;20052;-57
2023/06/13 00:39:58;;;;;;;14.93;12.20;;;21.00;99.90;;;;;;4213910;28;20055;-57
2023/06/13 00:42:01;;;;;;;16.08;11.52;;;21.00;99.90;;;;;;4213427;28;20048;-57
2023/06/13 00:44:04;;;;;;;18.58;12.27;;;21.00;99.90;;;;;;4212677;28;20055;-57
2023/06/13 00:46:06;;;;;;;13.93;11.27;;;20.90;99.90;;;;;;4213503;28;20044;-57
2023/06/13 00:48:10;;;;;;;14.85;11.80;;;20.90;99.90;;;;;;4195670;28;20098;-57
2023/06/13 00:50:12;;;;;;;15.65;11.38;;;20.90;99.90;;;;;;4213669;28;20056;-58
2023/06/13 00:52:16;;;;;;;15.02;11.52;;;20.90;99.90;;;;;;4213619;28;20044;-57
2023/06/13 00:54:18;;;;;;;19.35;12.35;;;20.90;99.90;;;;;;4212621;28;20071;-58
2023/06/13 00:56:22;;;;;;;16.05;11.43;;;20.90;99.90;;;;;;4195859;28;20056;-58
2023/06/13 00:58:24;;;;;;;13.40;11.00;;;20.90;99.90;;;;;;4213508;28;20056;-57
2023/06/13 01:00:26;;;;;;;15.63;11.43;;;20.80;99.90;;;;;;4213656;28;20477;-58
2023/06/13 01:02:29;;;;;;;16.85;11.57;;;20.80;99.90;;;;;;4213349;28;20056;-58
2023/06/13 01:04:35;;;;;;;14.35;11.43;;;20.80;99.90;;;;;;4212620;28;20055;-58
2023/06/13 01:06:41;;;;;;;14.68;11.85;;;20.80;99.90;;;;;;4195624;28;20154;-57
2023/06/13 01:08:44;;;;;;;21.23;11.40;;;20.80;99.90;;;;;;4195556;28;20067;-57
2023/06/13 01:10:53;;;;;;;14.82;11.93;;;20.70;99.90;;;;;;4213625;28;20052;-59
2023/06/13 01:13:07;;;;;;;14.82;11.57;;;20.70;99.90;;;;;;4195932;28;20076;-58
2023/06/13 01:15:14;;;;;;;18.48;11.85;;;20.70;99.90;;;;;;4212752;28;20044;-58
2023/06/13 01:17:24;;;;;;;12.70;10.77;;;20.60;99.90;;;;;;4213447;28;20040;-58
2023/06/13 01:19:37;;;;;;;17.10;12.15;;;20.60;99.90;;;;;;4213219;28;20050;-58
2023/06/13 01:21:40;;;;;;;13.85;11.40;;;20.70;99.90;;;;;;4213461;28;20047;-57
2023/06/13 01:23:49;;;;;;;15.80;11.60;;;20.70;99.90;;;;;;4212995;28;20044;-58
2023/06/13 01:26:02;;;;;;;13.52;11.40;;;20.70;99.90;;;;;;4213144;28;20046;-57
2023/06/13 01:28:08;;;;;;;17.95;12.93;;;20.70;99.90;;;;;;4213601;28;20051;-57
2023/06/13 01:30:15;;;;;;;20.58;10.60;;;20.60;99.90;;;;;;4216312;28;20083;-61
2023/06/13 01:32:24;;;;;;;15.07;12.02;;;20.60;99.90;;;;;;4216530;28;20504;-57
2023/06/13 01:34:31;;;;;;;19.52;12.65;;;20.60;99.90;;;;;;4215438;28;20569;-57
2023/06/13 01:36:33;;;;;;;14.63;11.80;;;20.70;99.90;;;;;;4216445;28;20139;-57
2023/06/13 01:38:36;;;;;;;12.18;10.80;;;20.60;99.90;;;;;;4198141;28;20106;-59
2023/06/13 01:40:39;;;;;;;14.93;11.52;;;20.60;99.90;;;;;;4216177;28;20397;-57
2023/06/13 01:42:41;;;;;;;19.08;12.88;;;20.60;99.90;;;;;;4216338;28;20063;-57
2023/06/13 01:44:49;;;;;;;14.20;12.70;;;20.60;99.90;;;;;;4214323;28;20059;-57
2023/06/13 01:46:59;;;;;;;15.27;11.93;;;20.60;99.90;;;;;;4216365;28;20455;-57
2023/06/13 01:49:11;;;;;;;13.80;11.80;;;20.50;99.90;;;;;;4216466;28;20230;-58
2023/06/13 01:51:19;;;;;;;13.65;12.18;;;20.50;99.90;;;;;;4216355;28;20048;-57
2023/06/13 01:53:27;;;;;;;17.83;12.35;;;20.50;99.90;;;;;;4216068;28;20153;-56
2023/06/13 01:55:38;;;;;;;13.77;12.18;;;20.50;99.90;;;;;;4214944;28;20044;-56
2023/06/13 01:57:47;;;;;;;14.25;12.02;;;20.40;99.90;;;;;;4216544;28;20119;-58
2023/06/13 01:59:55;;;;;;;19.27;12.23;;;20.40;99.90;;;;;;4199256;28;20182;-57
2023/06/13 02:01:59;;;;;;;18.60;12.10;;;20.40;99.90;;;;;;4217782;28;20170;-59
2023/06/13 02:04:01;;;;;;;14.77;11.88;;;20.30;99.90;;;;;;4216527;28;20068;-57
2023/06/13 02:06:04;;;;;;;15.80;11.50;;;20.30;99.90;;;;;;4216479;28;20040;-62
2023/06/13 02:08:06;;;;;;;15.27;10.98;;;20.30;99.90;;;;;;4216602;28;20044;-56
2023/06/13 02:10:09;;;;;;;12.48;11.10;;;20.20;99.90;;;;;;4215715;28;20472;-56
2023/06/13 02:12:12;;;;;;;15.00;12.55;;;20.20;99.90;;;;;;4216284;28;20063;-56
2023/06/13 02:14:15;;;;;;;16.20;12.38;;;20.20;99.90;;;;;;4214866;28;20385;-59
2023/06/13 02:16:18;;;;;;;14.38;11.32;;;20.20;99.90;;;;;;4215720;28;20068;-58
2023/06/13 02:18:21;;;;;;;12.98;11.50;;;20.20;99.90;;;;;;4215988;28;20048;-57
2023/06/13 02:20:23;;;;;;;18.27;12.45;;;20.20;99.90;;;;;;4215681;28;20044;-56
2023/06/13 02:22:25;;;;;;;21.52;15.32;;;20.10;99.90;;;;;;4215700;28;20126;-57
2023/06/13 02:24:27;;;;;;;21.95;16.35;;;20.10;99.90;;;;;;4214692;28;20044;-59
2023/06/13 02:26:29;;;;;;;19.42;14.27;;;20.10;99.90;;;;;;4215421;28;20036;-56
2023/06/13 02:28:32;;;;;;;21.60;15.18;;;20.10;99.90;;;;;;4215770;28;20502;-56
2023/06/13 02:30:34;;;;;;;18.75;15.00;;;20.00;99.90;;;;;;4215468;28;20052;-58
2023/06/13 02:32:39;;;;;;;18.92;14.57;;;20.00;99.90;;;;;;4214973;28;20086;-57
2023/06/13 02:34:42;;;;;;;15.50;12.60;;;20.00;99.90;;;;;;4214405;28;20127;-57
2023/06/13 02:36:44;;;;;;;18.20;13.30;;;20.00;99.90;;;;;;4215411;28;20131;-57
2023/06/13 02:38:46;;;;;;;14.05;12.32;;;20.00;99.90;;;;;;4197021;28;20051;-58
2023/06/13 02:40:48;;;;;;;18.25;11.90;;;19.90;99.90;;;;;;4215329;28;20064;-57
2023/06/13 02:42:52;;;;;;;15.40;11.93;;;20.00;99.90;;;;;;4215793;28;20071;-58
2023/06/13 02:44:54;;;;;;;11.43;9.98;;;20.00;99.90;;;;;;4214013;28;20067;-58
2023/06/13 02:46:56;;;;;;;14.40;11.10;;;19.90;99.90;;;;;;4215201;28;20075;-58
2023/06/13 02:48:59;;;;;;;15.68;12.27;;;19.90;99.90;;;;;;4215149;28;20044;-58
2023/06/13 02:51:03;;;;;;;17.33;12.25;;;19.90;99.90;;;;;;4215331;28;20043;-58
2023/06/13 02:53:05;;;;;;;15.60;12.00;;;19.80;99.90;;;;;;4214884;28;20054;-58
2023/06/13 02:55:08;;;;;;;15.23;12.15;;;19.90;99.90;;;;;;4213944;28;20052;-58
2023/06/13 02:57:11;;;;;;;16.10;12.45;;;19.90;99.90;;;;;;4215237;28;20054;-58
2023/06/13 02:59:13;;;;;;;13.85;11.43;;;19.90;99.90;;;;;;4215275;28;20044;-58
2023/06/13 03:01:15;;;;;;;13.52;10.85;;;19.80;99.90;;;;;;4215380;28;20050;-58
2023/06/13 03:03:18;;;;;;;16.77;12.32;;;19.80;99.90;;;;;;4215274;28;20119;-58
2023/06/13 03:05:22;;;;;;;14.57;11.85;;;19.80;99.90;;;;;;4214269;28;20062;-59
2023/06/13 03:07:25;;;;;;;16.70;10.77;;;19.80;99.90;;;;;;4214541;28;20124;-58
2023/06/13 03:09:27;;;;;;;15.48;11.32;;;19.80;99.90;;;;;;4214689;28;20051;-58
2023/06/13 03:11:29;;;;;;;16.92;12.95;;;19.80;99.90;;;;;;4214878;28;20048;-58
2023/06/13 03:13:31;;;;;;;20.80;13.05;;;19.70;99.90;;;;;;4214952;28;20122;-58
2023/06/13 03:15:33;;;;;;;15.80;12.65;;;19.70;99.90;;;;;;4213839;28;20193;-58
2023/06/13 03:17:35;;;;;;;14.95;11.50;;;19.70;99.90;;;;;;4214665;28;20071;-59
2023/06/13 03:19:38;;;;;;;13.82;12.38;;;19.60;99.90;;;;;;4215060;28;20491;-59
2023/06/13 03:21:41;;;;;;;16.85;12.13;;;19.60;99.90;;;;;;4214473;28;20039;-58
2023/06/13 03:23:43;;;;;;;15.77;12.07;;;19.70;99.90;;;;;;4214493;28;20123;-58
2023/06/13 03:25:46;;;;;;;14.23;12.15;;;19.60;99.90;;;;;;4213804;28;20134;-58
2023/06/13 03:27:48;;;;;;;16.17;12.20;;;19.60;99.90;;;;;;4214502;28;20135;-58
2023/06/13 03:29:50;;;;;;;13.55;11.93;;;19.60;99.90;;;;;;4196851;28;20548;-58
2023/06/13 03:31:52;;;;;;;18.08;13.25;;;19.60;99.90;;;;;;4214550;28;20127;-58
2023/06/13 03:33:56;;;;;;;16.40;11.80;;;19.60;99.90;;;;;;4214866;28;20048;-58
2023/06/13 03:35:58;;;;;;;19.80;12.05;;;19.60;99.90;;;;;;4213249;28;20123;-58
2023/06/13 03:38:02;;;;;;;13.50;11.05;;;19.60;99.90;;;;;;4214861;28;20477;-58
2023/06/13 03:40:05;;;;;;;19.40;14.48;;;19.50;99.90;;;;;;4214495;28;20052;-58
2023/06/13 03:42:08;;;;;;;16.08;11.57;;;19.50;99.90;;;;;;4214810;28;20048;-59
2023/06/13 03:44:10;;;;;;;21.98;13.35;;;19.50;99.90;;;;;;4213902;28;20048;-59
2023/06/13 03:46:12;;;;;;;14.27;12.38;;;19.50;99.90;;;;;;4213878;28;20044;-58
2023/06/13 03:48:17;;;;;;;15.23;11.48;;;19.50;99.90;;;;;;4214516;28;20055;-58
2023/06/13 03:50:19;;;;;;;14.82;12.88;;;19.50;99.90;;;;;;4214384;28;20044;-58
2023/06/13 03:52:21;;;;;;;16.08;12.95;;;19.50;99.90;;;;;;4213506;28;20076;-58
2023/06/13 03:54:25;;;;;;;21.42;11.23;;;19.50;99.90;;;;;;4214450;28;20113;-60
2023/06/13 03:56:27;;;;;;;14.40;11.50;;;19.50;99.90;;;;;;4214897;28;20055;-58
2023/06/13 03:58:32;;;;;;;14.65;12.43;;;19.50;99.90;;;;;;4214798;28;20415;-59
2023/06/13 04:00:34;;;;;;;16.85;11.63;;;19.50;99.90;;;;;;4214716;28;20525;-59
2023/06/13 04:02:37;;;;;;;15.10;12.63;;;19.50;99.90;;;;;;4196390;28;20053;-58
2023/06/13 04:04:42;;;;;;;15.48;12.25;;;19.50;99.90;;;;;;4212980;28;20486;-60
2023/06/13 04:06:49;;;;;;;18.50;12.85;;;19.50;99.90;;;;;;4213731;28;20040;-58
2023/06/13 04:08:52;;;;;;;16.77;13.02;;;19.50;99.90;;;;;;4214400;28;20046;-58
2023/06/13 04:10:56;;;;;;;13.55;12.02;;;19.60;99.90;;;;;;4213856;28;20461;-57
2023/06/13 04:12:58;;;;;;;18.77;11.68;;;19.50;99.90;;;;;;4196481;28;20359;-59
2023/06/13 04:15:00;;;;;;;14.63;12.82;;;19.60;99.90;;;;;;4213182;28;20051;-58
2023/06/13 04:17:03;;;;;;;14.80;11.55;;;19.60;99.90;;;;;;4213728;28;20539;-56
2023/06/13 04:19:07;;;;;;;15.38;10.55;;;19.60;99.90;;;;;;4213971;28;20474;-57
2023/06/13 04:21:09;;;;;;;21.98;12.15;;;19.50;99.90;;;;;;4213458;28;20122;-58
2023/06/13 04:23:11;;;;;;;16.63;11.07;;;19.50;99.90;;;;;;4213801;28;20055;-57
2023/06/13 04:25:13;;;;;;;18.17;13.02;;;19.60;99.90;;;;;;4212995;28;20101;-58
2023/06/13 04:27:19;;;;;;;21.92;12.98;;;19.60;99.90;;;;;;4213735;28;20046;-58
2023/06/13 04:29:25;;;;;;;15.48;12.30;;;19.60;99.90;;;;;;4213951;28;20043;-59
2023/06/13 04:31:35;;;;;;;17.75;11.63;;;19.60;99.90;;;;;;4213955;28;20414;-59
2023/06/13 04:33:39;;;;;;;15.85;12.10;;;19.70;99.90;;;;;;4213833;28;20074;-59
2023/06/13 04:35:44;;;;;;;17.65;12.27;;;19.70;99.90;;;;;;4212341;28;20457;-58
2023/06/13 04:37:46;;;;;;;;;;;19.60;99.90;;;;;;4214395;28;20397;-57
2023/06/13 04:39:48;;;;;;;20.60;11.90;;;19.70;99.90;;;;;;4213829;28;19924;-58
2023/06/13 04:41:55;;;;;;;13.32;11.18;;;19.70;99.90;;;;;;4213766;28;20413;-58
2023/06/13 04:43:58;;;;;;;20.67;12.13;;;19.80;99.90;;;;;;4213454;28;20056;-58
2023/06/13 04:46:04;;;;;;;22.25;12.93;;;19.80;99.90;;;;;;4212624;28;20032;-57
2023/06/13 04:48:11;;;;;;;19.88;11.95;;;19.70;99.90;;;;;;4213592;28;20160;-59
2023/06/13 04:50:13;;;;;;;15.75;11.23;;;19.80;99.90;;;;;;4213723;28;20048;-58
2023/06/13 04:52:18;;;;;;;19.38;10.75;;;19.80;99.90;;;;;;4213872;28;20139;-59
2023/06/13 04:54:24;;;;;;;25.25;14.60;;;19.80;99.90;;;;;;4213247;28;20119;-58
2023/06/13 04:56:27;;;;;;;26.38;15.80;;;19.90;99.90;;;;;;4213106;28;20185;-58
2023/06/13 04:58:30;;;;;;;27.08;13.25;;;20.00;99.90;;;;;;4213492;28;20402;-58
2023/06/13 05:00:33;;;;;;;21.73;13.73;;;19.90;99.90;;;;;;4213423;28;20109;-58
2023/06/13 05:02:35;;;;;;;19.77;13.85;;;19.90;99.90;;;;;;4213568;28;20080;-58
2023/06/13 05:04:37;;;;;;;21.65;15.68;;;20.00;99.90;;;;;;4214328;28;20048;-57
2023/06/13 05:06:40;;;;;;;24.13;15.25;;;20.00;99.90;;;;;;4217069;28;20044;-57
2023/06/13 05:08:42;;;;;;;24.30;14.10;;;20.00;99.90;;;;;;4217021;28;20143;-58
2023/06/13 05:10:44;;;;;;;31.55;15.27;;;20.00;99.90;;;;;;4216930;28;20127;-57
2023/06/13 05:12:46;;;;;;;28.90;14.80;;;20.00;99.90;;;;;;4216661;28;20048;-58
2023/06/13 05:14:48;;;;;;;24.85;13.82;;;20.10;99.90;;;;;;4215722;28;20229;-58
2023/06/13 05:16:53;;;;;;;27.27;15.63;;;20.10;99.90;;;;;;4216632;28;20086;-57
2023/06/13 05:19:00;;;;;;;;;;;20.20;99.90;;;;;;4217038;28;20054;-57
2023/06/13 05:21:03;;;;;;;19.13;13.85;;;20.20;99.90;;;;;;4217728;28;19920;-58
2023/06/13 05:23:05;;;;;;;24.38;14.63;;;20.20;99.90;;;;;;4217984;28;20052;-59
2023/06/13 05:25:15;;;;;;;31.30;15.55;;;20.20;99.90;;;;;;4217561;28;20044;-59
2023/06/13 05:27:17;;;;;;;23.10;14.38;;;20.30;99.90;;;;;;4217534;28;20043;-59
2023/06/13 05:29:19;;;;;;;22.88;13.07;;;20.30;99.90;;;;;;4216964;28;20054;-61
2023/06/13 05:31:21;;;;;;;20.98;12.52;;;20.30;99.90;;;;;;4216878;28;20048;-58
2023/06/13 05:33:25;;;;;;;29.40;12.68;;;20.40;99.90;;;;;;4216202;28;20126;-58
2023/06/13 05:35:27;;;;;;;20.55;13.75;;;20.40;99.90;;;;;;4215582;28;20048;-59
2023/06/13 05:37:38;;;;;;;17.02;13.05;;;20.50;99.90;;;;;;4216674;28;20589;-57
2023/06/13 05:39:41;;;;;;;26.48;14.23;;;20.50;99.90;;;;;;4216638;28;20109;-58
2023/06/13 05:41:43;;;;;;;27.30;13.27;;;20.50;99.90;;;;;;4216210;28;20048;-58
2023/06/13 05:43:45;;;;;;;22.73;11.75;;;20.50;99.90;;;;;;4198115;28;20143;-59
2023/06/13 05:45:50;;;;;;;17.35;11.48;;;20.60;99.90;;;;;;4215284;28;20047;-57
2023/06/13 05:47:52;;;;;;;16.75;12.00;;;20.60;99.90;;;;;;4216046;28;20078;-59
2023/06/13 05:49:56;;;;;;;15.35;11.38;;;20.60;99.90;;;;;;4198452;28;20047;-65
2023/06/13 05:51:58;;;;;;;16.75;10.23;;;20.60;99.90;;;;;;4216529;28;20115;-62
2023/06/13 05:54:00;;;;;;;18.58;13.80;;;20.70;99.90;;;;;;4216731;28;20063;-58
2023/06/13 05:56:02;;;;;;;22.48;13.55;;;20.70;99.90;;;;;;4215617;28;20054;-58
2023/06/13 05:58:05;;;;;;;21.98;12.30;;;20.80;99.90;;;;;;4216067;28;20048;-58
2023/06/13 06:00:11;;;;;;;21.58;12.25;;;20.80;99.90;;;;;;4216053;28;20102;-58
2023/06/13 06:02:14;;;;;;;18.88;10.60;;;20.80;99.90;;;;;;4215767;28;20040;-58
2023/06/13 06:04:17;;;;;;;20.55;12.48;;;20.80;99.90;;;;;;4216246;28;20052;-58
2023/06/13 06:06:21;;;;;;;13.98;10.73;;;20.80;99.90;;;;;;4214994;28;20132;-58
2023/06/13 06:08:23;;;;;;;10.32;8.65;;;20.80;99.90;;;;;;4215988;28;20118;-58
2023/06/13 06:10:25;;;;;;;16.60;11.02;;;20.90;99.90;;;;;;4215856;28;20097;-60
2023/06/13 06:12:27;;;;;;;19.13;11.65;;;20.90;99.90;;;;;;4216168;28;20097;-57
2023/06/13 06:14:29;;;;;;;12.40;9.10;;;20.90;99.90;;;;;;4215214;28;20071;-58
2023/06/13 06:16:31;;;;;;;15.63;10.95;;;20.90;99.90;;;;;;4214392;28;20105;-58
2023/06/13 06:18:33;;;;;;;20.20;11.75;;;21.00;99.90;;;;;;4215768;28;20040;-57
2023/06/13 06:20:36;;;;;;;19.05;11.93;;;21.00;99.90;;;;;;4215804;28;20044;-58
2023/06/13 06:22:39;;;;;;;21.58;11.00;;;21.00;99.90;;;;;;4215693;28;20047;-57
2023/06/13 06:24:42;;;;;;;19.98;11.15;;;21.10;99.90;;;;;;4197350;28;20094;-59
2023/06/13 06:26:44;;;;;;;18.23;10.70;;;21.20;99.90;;;;;;4215054;28;20071;-57
2023/06/13 06:28:46;;;;;;;23.75;11.15;;;21.30;99.90;;;;;;4215742;28;20052;-57
2023/06/13 06:30:48;;;;;;;19.35;11.80;;;21.30;99.90;;;;;;4215565;28;20051;-59
2023/06/13 06:32:51;;;;;;;21.25;10.27;;;21.40;99.90;;;;;;4215830;28;20518;-60
2023/06/13 06:34:54;;;;;;;23.95;11.52;;;21.40;99.90;;;;;;4214435;28;20048;-59
2023/06/13 06:36:57;;;;;;;23.30;11.40;;;21.50;99.90;;;;;;4215172;28;20159;-60
2023/06/13 06:39:00;;;;;;;16.80;10.57;;;21.50;99.90;;;;;;4197713;28;20131;-59
2023/06/13 06:41:03;;;;;;;20.67;11.02;;;21.50;99.90;;;;;;4215126;28;20159;-59
2023/06/13 06:43:05;;;;;;;15.98;10.88;;;21.50;99.90;;;;;;4215289;28;20086;-59
2023/06/13 06:45:12;;;;;;;24.02;11.48;;;21.60;99.90;;;;;;4213918;28;20060;-60
2023/06/13 06:47:14;;;;;;;21.52;10.45;;;21.80;99.80;;;;;;4215047;28;20074;-59
2023/06/13 06:49:16;;;;;;;22.33;9.93;;;21.80;99.40;;;;;;4215359;28;20075;-60
2023/06/13 06:51:18;;;;;;;20.30;9.45;;;21.90;99.50;;;;;;4215463;28;20141;-62
2023/06/13 06:53:20;;;;;;;15.48;8.45;;;21.90;98.60;;;;;;4215461;28;20072;-60
2023/06/13 06:55:24;;;;;;;12.30;8.25;;;22.00;98.90;;;;;;4214293;28;20534;-59
2023/06/13 06:57:26;;;;;;;10.85;7.38;;;22.20;99.10;;;;;;4214981;28;20130;-59
2023/06/13 06:59:29;;;;;;;31.83;10.05;;;22.20;99.10;;;;;;4214611;28;20076;-59
2023/06/13 07:01:31;;;;;;;12.10;7.47;;;22.40;98.40;;;;;;4214871;28;20509;-58
2023/06/13 07:03:35;;;;;;;14.85;7.13;;;22.60;97.80;;;;;;4214931;28;20126;-60
2023/06/13 07:05:39;;;;;;;17.15;8.25;;;22.80;97.80;;;;;;4213935;28;20118;-58
2023/06/13 07:07:42;;;;;;;17.25;8.07;;;22.90;97.00;;;;;;4215081;28;20044;-59
2023/06/13 07:09:44;;;;;;;16.42;9.10;;;23.10;96.40;;;;;;4215155;28;20040;-57
2023/06/13 07:11:48;;;;;;;28.88;9.07;;;23.10;95.40;;;;;;4215345;28;20072;-58
2023/06/13 07:13:50;;;;;;;36.13;8.88;;;23.20;96.10;;;;;;4214676;28;20051;-60
2023/06/13 07:15:52;;;;;;;20.75;8.20;;;23.40;95.40;;;;;;4213970;28;20056;-60
2023/06/13 07:17:54;;;;;;;21.45;8.52;;;23.50;94.90;;;;;;4214824;28;20544;-58
2023/06/13 07:19:56;;;;;;;15.38;8.32;;;23.40;94.90;;;;;;4214753;28;20413;-58
2023/06/13 07:21:59;;;;;;;20.95;8.05;;;23.50;94.50;;;;;;4214631;28;20560;-58
2023/06/13 07:24:05;;;;;;;16.75;7.43;;;23.50;94.40;;;;;;4214750;28;20541;-58
2023/06/13 07:26:09;;;;;;;14.30;7.25;;;23.40;94.40;;;;;;4213191;28;20048;-58
2023/06/13 07:28:12;;;;;;;23.40;7.57;;;23.60;94.60;;;;;;4213875;28;20078;-60
2023/06/13 07:30:15;;;;;;;19.67;8.23;;;23.60;94.00;;;;;;4215051;28;20523;-60
2023/06/13 07:32:18;;;;;;;15.52;7.93;;;23.80;94.00;;;;;;4215163;28;20134;-60
2023/06/13 07:34:20;;;;;;;19.52;7.82;;;24.00;94.00;;;;;;4214658;28;20144;-60
2023/06/13 07:36:43;;;;;;;17.35;8.07;;;24.10;93.90;;;;;;4213418;28;20089;-57
2023/06/13 07:38:45;;;;;;;14.27;7.65;;;24.10;93.80;;;;;;4214414;28;20461;-58
2023/06/13 07:40:47;;;;;;;24.50;7.78;;;24.30;93.40;;;;;;4214365;28;20090;-57
2023/06/13 07:42:50;;;;;;;23.48;7.40;;;24.40;93.50;;;;;;4214359;28;20068;-58
2023/06/13 07:44:53;;;;;;;25.75;7.15;;;24.40;93.30;;;;;;4214515;28;20052;-58
2023/06/13 07:46:55;;;;;;;18.17;6.90;;;24.50;93.50;;;;;;4215514;28;20066;-58
2023/06/13 07:48:58;;;;;;;9.82;6.47;;;24.60;92.90;;;;;;4215712;28;20126;-58
2023/06/13 07:51:00;;;;;;;15.55;6.45;;;24.60;92.30;;;;;;4216305;28;20444;-61
2023/06/13 07:53:02;;;;;;;10.35;6.00;;;24.70;92.70;;;;;;4215442;28;20101;-57
2023/06/13 07:55:05;;;;;;;16.02;6.05;;;24.80;91.90;;;;;;4214548;28;20067;-58
2023/06/13 07:57:08;;;;;;;24.50;6.50;;;24.80;91.00;;;;;;4213712;28;20044;-59
2023/06/13 07:59:13;;;;;;;14.45;5.88;;;24.90;90.80;;;;;;4214318;28;20048;-57
2023/06/13 08:01:16;;;;;;;10.05;5.80;;;24.80;88.80;;;;;;4214086;28;20075;-58
2023/06/13 08:03:18;;;;;;;13.93;5.75;;;24.70;88.30;;;;;;4214039;28;20056;-58
2023/06/13 08:05:23;;;;;;;11.13;5.53;;;24.70;88.40;;;;;;4195767;28;20110;-57
2023/06/13 08:07:26;;;;;;;18.73;5.07;;;24.80;87.80;;;;;;4214553;28;20048;-60
2023/06/13 08:09:28;;;;;;;26.65;6.82;;;24.90;88.20;;;;;;4214695;28;20122;-59
2023/06/13 08:11:30;;;;;;;16.27;6.15;;;25.00;90.70;;;;;;4213835;28;20134;-59
2023/06/13 08:13:32;;;;;;;19.90;5.90;;;24.90;89.50;;;;;;4213817;28;20044;-59
2023/06/13 08:15:35;;;;;;;11.75;5.50;;;24.90;91.60;;;;;;4213045;28;20113;-59
2023/06/13 08:17:41;;;;;;;10.00;5.22;;;24.90;91.30;;;;;;4213955;28;20478;-60
2023/06/13 08:19:48;;;;;;;16.08;6.30;;;24.80;90.10;;;;;;4213964;28;20097;-59
2023/06/13 08:21:53;;;;;;;15.20;5.78;;;24.80;90.50;;;;;;4213775;28;20051;-60
2023/06/13 08:23:55;;;;;;;28.98;6.03;;;24.70;89.60;;;;;;4213873;28;20168;-60
2023/06/13 08:25:57;;;;;;;10.02;5.25;;;24.80;87.30;;;;;;4213119;28;20127;-58
2023/06/13 08:28:00;;;;;;;20.42;6.20;;;24.70;87.30;;;;;;4214135;28;20067;-59
2023/06/13 08:30:03;;;;;;;16.20;5.72;;;24.70;86.80;;;;;;4214475;28;20058;-58
2023/06/13 08:32:06;;;;;;;9.20;5.10;;;24.80;86.50;;;;;;4213295;28;20083;-58
2023/06/13 08:34:09;;;;;;;15.65;6.38;;;24.70;85.20;;;;;;4213989;28;20052;-58
2023/06/13 08:36:15;;;;;;;20.90;5.90;;;24.80;86.90;;;;;;4212735;28;20049;-66
2023/06/13 08:38:33;;;;;;;36.00;7.18;;;25.00;87.50;;;;;;4213871;28;20048;-59
2023/06/13 08:40:53;;;;;;;14.80;6.32;;;25.10;87.20;;;;;;4213454;28;20036;-63
2023/06/13 08:42:57;;;;;;;15.32;6.10;;;25.10;84.50;;;;;;4215041;28;20207;-59
2023/06/13 08:45:00;;;;;;;17.90;6.10;;;25.10;83.00;;;;;;4214438;28;20059;-62
2023/06/13 08:47:03;;;;;;;14.80;6.10;;;25.10;84.60;;;;;;4215287;28;20050;-61
2023/06/13 08:49:05;;;;;;;12.85;5.78;;;25.20;85.00;;;;;;4199791;28;20049;-64
2023/06/13 08:51:13;;;;;;;15.18;5.72;;;25.20;84.90;;;;;;4217346;28;20099;-58
2023/06/13 08:53:17;;;;;;;17.17;5.65;;;25.20;84.80;;;;;;4215995;28;20050;-58
2023/06/13 08:55:22;;;;;;;14.63;5.65;;;25.30;85.20;;;;;;4195950;28;20135;-61
2023/06/13 08:57:29;;;;;;;18.48;6.50;;;25.40;84.00;;;;;;4214593;28;20054;-57
2023/06/13 08:59:36;;;;;;;13.43;5.47;;;25.50;85.50;;;;;;4214426;28;20051;-59
2023/06/13 09:01:38;;;;;;;13.18;5.72;;;25.60;83.80;;;;;;4213885;28;20505;-57
2023/06/13 09:03:41;;;;;;;18.67;6.47;;;25.70;85.10;;;;;;4213802;28;20048;-54
2023/06/13 09:05:44;;;;;;;18.30;7.03;;;25.70;84.80;;;;;;4213076;28;20482;-57
2023/06/13 09:07:49;;;;;;;23.02;6.07;;;25.60;83.00;;;;;;4196342;28;20049;-59
2023/06/13 09:09:53;;;;;;;7.60;5.32;;;25.70;83.80;;;;;;4195960;28;20064;-59
2023/06/13 09:11:55;;;;;;;18.03;5.90;;;25.80;84.20;;;;;;4213353;28;20040;-59
2023/06/13 09:14:00;;;;;;;28.58;6.55;;;25.80;85.40;;;;;;4213507;28;20047;-59
2023/06/13 09:16:02;;;;;;;22.75;6.20;;;25.90;86.20;;;;;;4212788;28;20106;-59
2023/06/13 09:18:05;;;;;;;9.30;5.80;;;25.80;86.40;;;;;;4213471;28;20083;-59
2023/06/13 09:20:08;;;;;;;19.73;6.57;;;26.00;86.40;;;;;;4213369;28;20076;-59
2023/06/13 09:22:10;;;;;;;9.60;5.57;;;26.20;86.60;;;;;;4213394;28;20424;-59
2023/06/13 09:24:15;;;;;;;10.55;5.25;;;26.20;84.10;;;;;;4212966;28;20055;-59
2023/06/13 09:26:17;;;;;;;13.73;5.45;;;26.30;84.80;;;;;;4212318;28;20044;-57
2023/06/13 09:28:30;;;;;;;13.20;5.75;;;26.30;82.70;;;;;;4213382;28;20052;-58
2023/06/13 09:30:32;;;;;;;32.83;6.53;;;26.30;83.90;;;;;;4213359;28;20048;-56
2023/06/13 09:32:36;;;;;;;21.20;6.20;;;26.30;84.10;;;;;;4213638;28;20478;-59
2023/06/13 09:34:38;;;;;;;18.95;6.20;;;26.40;83.50;;;;;;4214141;28;20127;-57
2023/06/13 09:36:41;;;;;;;11.45;5.72;;;26.30;82.30;;;;;;4212430;28;20486;-57
2023/06/13 09:38:43;;;;;;;21.73;5.90;;;26.40;82.50;;;;;;4212889;28;20051;-56
2023/06/13 09:40:47;;;;;;;22.30;6.50;;;26.50;84.40;;;;;;4213444;28;20048;-59
2023/06/13 09:42:50;;;;;;;11.37;5.57;;;26.70;81.20;;;;;;4213308;28;20090;-59
2023/06/13 09:45:08;;;;;;;13.02;5.28;;;26.70;81.20;;;;;;4212865;28;20461;-57
2023/06/13 09:47:20;;;;;;;16.17;6.15;;;26.70;79.90;;;;;;4212557;28;20473;-59
2023/06/13 09:49:23;;;;;;;8.23;5.20;;;26.70;78.60;;;;;;4213302;28;20048;-59
2023/06/13 09:51:28;;;;;;;15.45;6.00;;;26.60;78.60;;;;;;4216310;28;20040;-60
2023/06/13 09:53:31;;;;;;;19.23;5.85;;;26.60;78.70;;;;;;4197800;28;20078;-57
2023/06/13 09:55:33;;;;;;;9.40;5.07;;;26.70;79.80;;;;;;4215377;28;20050;-60
2023/06/13 09:57:37;;;;;;;13.38;5.30;;;26.80;79.20;;;;;;4215957;28;20048;-59
2023/06/13 09:59:59;;;;;;;12.43;5.35;;;27.00;79.50;;;;;;4215730;28;20044;-57
2023/06/13 10:02:02;;;;;;;14.07;5.53;;;27.10;78.90;;;;;;4215968;28;20055;-59
2023/06/13 10:04:05;;;;;;;15.05;5.45;;;27.10;77.10;;;;;;4215662;28;20175;-58
2023/06/13 10:06:08;;;;;;;11.75;5.65;;;27.10;76.30;;;;;;4214549;28;20081;-57
2023/06/13 10:08:10;;;;;;;10.40;5.90;;;27.10;77.50;;;;;;4215126;28;20044;-56
2023/06/13 10:10:12;;;;;;;11.27;5.75;;;27.20;76.90;;;;;;4215586;28;20398;-58
2023/06/13 10:12:19;;;;;;;11.77;5.35;;;27.20;76.50;;;;;;4215732;28;20094;-56
2023/06/13 10:14:23;;;;;;;25.80;6.80;;;27.20;76.50;;;;;;4215939;28;20160;-56
2023/06/13 10:16:26;;;;;;;;;;;27.20;77.30;;;;;;4215191;28;20477;-55
2023/06/13 10:18:35;;;;;;;12.02;5.82;;;27.20;76.90;;;;;;4215754;28;19924;-57
2023/06/13 10:20:39;;;;;;;15.45;6.18;;;27.20;77.70;;;;;;4215422;28;20047;-60
2023/06/13 10:22:41;;;;;;;14.10;5.90;;;27.20;77.70;;;;;;4215289;28;20388;-59
2023/06/13 10:24:44;;;;;;;13.40;5.65;;;27.20;77.20;;;;;;4215230;28;20051;-60
2023/06/13 10:26:48;;;;;;;13.60;5.78;;;27.10;76.70;;;;;;4214321;28;20094;-57
2023/06/13 10:29:19;;;;;;;8.90;5.47;;;27.30;77.90;;;;;;4215248;28;20078;-57
2023/06/13 10:31:35;;;;;;;9.68;5.13;;;27.40;77.20;;;;;;4130920;28;20461;-57